Main page
METAR-TAF:

METAR-TAF

Airports :

Gatwick Airport

London-Gatwick, England

latitude: 51-09N, longitude: 000-11W, elevation: 62 m

Current weather observation

The report was made 31 minutes ago, at 20:20 UTC
Wind 1 kt from variable directions
Temperature 2°C
Humidity 93%
Pressure 1024 hPa
Visibility 10 km or more
no clouds below 1500 m and no cumulonimbus

METAR: EGKK 112020Z VRB01KT CAVOK 02/01 Q1024

Time: 21:51 (20:51 UTC)

Forecast

The report was made 2 hours and 38 minutes ago, at 18:13 UTC
Forecast valid from 11 at 18 UTC to 12 at 24 UTC
Wind 6 kt from the West/Northwest
Visibility 10 km or more
Few clouds at a height of 4000 ft
Probability 30% :
Temporary
from 11 at 18 UTC to 11 at 21 UTC
Wind 14 kt from the North
Visibility: 6000 m
light rain showers, snow
Temporary
from 12 at 08 UTC to 12 at 21 UTC
Visibility: 8000 m
Broken clouds at a height of 1400 ft
light rain showers

TAF: EGKK 111813Z 1118/1224 30006KT 9999 FEW040 PROB30 TEMPO 1118/1121 01014KT 6000 -SHRASN TEMPO 1208/1221 8000 -SHRA BKN014

Weather observations and forecasts of more than 4000 airports (METAR and TAF reports).

The available stations are represented by yellow and red dots on the map.

Hover mouse over dot to see the name of the station.

Then click to see weather observations and forecasts.

To change the map : click on the green buttons with a black cross to zoom in, on the green button with a dash to zoom out, or on the green arrows for adjacent maps.


METAR-TAF: